Aviation Digital Data Service (ADDS)

Output produced by METARs form (1602 UTC 31 May 2016)
found at http://www.aviationweather.gov/adds/metars/
 
KESN 311550Z COR 32004KT 10SM BKN024 BKN035 BKN043 27/23 A3002